Palm Springs, Florida
Current Conditions -  °F | °C
As of 9:53 PM on Saturday 24 Jan 2015 (Local Time) from KPBI Reporting Station
Clear Clear  
Wind Chill: 59°   Ceiling: Unl
Heat Index: 59°   Visibility: 10mi
Dew Point: 51°   Wind: 9mph
Humidity: 75%   Direction: 290°WNW
Pressure: 29.99"   Gusts: NA
Location:  26.6205°N, 80.0918°W
Report Text: KPBI 250253Z 29008KT 10SM CLR 15/11 A2999 RMK AO2 SLP156 T01500106 51015
Loading
Personal Weather Stations






























Interactive Weather Map New forecast layout! Learn more

10-Day Weather Forecast

Advertisements
Track Severe Weather on mobile